If you wish to contribute or participate in the discussions about articles you are invited to join SKYbrary as a registered user

 Actions

El Embrujo Airport

From SKYbrary Wiki

SKPV
Airport
ICAO: SKPV – IATA: PVA
Summary
Name El Embrujo Airport
Region South America and Caribbean
Territory Colombia CO.gif
Location Providencia, Archipelago of San Andres, Providencia and Santa Catalina
Serving Providencia
Elevation 8.839 m
29 ft8.839 m
Coordinates 13° 21' 31.82" N, 81° 21' 32.97" W
Runways
Designator Length Width Surface ROPS
17/35 1168 m3,832.021 ft
15 m49.213 ft
ASP /


METAR
Observation SKPV 172200Z 08004KT 330V130 9999 -DZ SCT017TCU 28/24 A2986
Station Providencia Isla / El Embrujo
Date/Time 17 October 2019 22:00:00
Wind direction 80°
Wind speed 04 kts
Lowest cloud amount scattered clouds
Temperature 28°C
Dew point 24°C
Humidity 78%
QNH hPa
Weather condition light drizzle

El Embrujo Airport is an airport serving Providencia Island, Colombia.

Climatology

Tropical monsoon climate (Köppen climate classification Am)

Maps

Terrain

Loading map...

Airport Layout

Loading map...


Accidents & Serious Incidents at or in vicinity of SKPV

None on SKYbrary